Time;durP1;ratioP1;P1;durP2;ratioP2;P2;SDS_P1;SDS_P2;PMS_P1;PMS_P2;Temp;Humidity;BMP_temperature;BMP_pressure;BME280_temperature;BME280_humidity;BME280_pressure;Samples;Min_cycle;Max_cycle;Signal;HPM_P1;HPM_P2
2021/07/02 00:02:05;;;;;;;1999.90;999.90;;;;;;;11.93;62.31;100906.88;5014025;27;97581;-68
2021/07/02 00:04:34;;;;;;;1999.90;999.90;;;;;;;11.92;62.27;100905.09;5008277;27;96916;-68
2021/07/02 00:07:02;;;;;;;1999.90;999.90;;;;;;;11.91;62.41;100908.63;5006423;27;97128;-68
2021/07/02 00:09:30;;;;;;;1999.90;999.90;;;;;;;11.89;62.38;100909.47;5008685;27;97763;-68
2021/07/02 00:11:57;;;;;;;1999.90;999.90;;;;;;;11.90;62.49;100905.94;5007516;27;98185;-68
2021/07/02 00:14:25;;;;;;;1999.90;999.90;;;;;;;11.85;62.88;100907.63;5010729;27;97756;-69
2021/07/02 00:16:53;;;;;;;1999.90;999.90;;;;;;;11.82;62.80;100903.13;5012114;27;97797;-69
2021/07/02 00:19:23;;;;;;;1999.90;999.90;;;;;;;11.83;62.37;100907.59;5010660;27;98784;-68
2021/07/02 00:21:52;;;;;;;1999.90;999.90;;;;;;;11.84;62.56;100904.06;5019504;27;97616;-69
2021/07/02 00:24:20;;;;;;;1999.90;999.90;;;;;;;11.85;62.41;100908.50;4996604;28;97156;-68
2021/07/02 00:26:47;;;;;;;1999.90;999.90;;;;;;;11.83;62.74;100915.59;5007991;27;98074;-68
2021/07/02 00:29:15;;;;;;;1999.90;999.90;;;;;;;11.84;62.56;100917.38;5010028;27;97640;-67
2021/07/02 00:31:43;;;;;;;1999.90;999.90;;;;;;;11.84;62.47;100917.38;5009140;27;98847;-68
2021/07/02 00:34:11;;;;;;;1999.90;999.90;;;;;;;11.82;62.68;100908.44;5015699;27;97746;-68
2021/07/02 00:36:38;;;;;;;1999.90;999.90;;;;;;;11.81;62.63;100911.09;5011989;27;97126;-69
2021/07/02 00:39:08;;;;;;;1999.90;999.90;;;;;;;11.76;62.96;100900.34;5011888;27;97596;-68
2021/07/02 00:41:37;;;;;;;1999.90;999.90;;;;;;;11.71;63.16;100909.13;4998901;28;102315;-68
2021/07/02 00:44:05;;;;;;;1999.90;999.90;;;;;;;11.68;63.17;100909.97;5009958;27;96939;-67
2021/07/02 00:46:33;;;;;;;1999.90;999.90;;;;;;;11.64;63.33;100910.78;5003428;27;97721;-68
2021/07/02 00:49:02;;;;;;;1999.90;999.90;;;;;;;11.68;63.03;100917.06;5008513;27;97788;-69
2021/07/02 00:51:31;;;;;;;1999.90;999.90;;;;;;;11.58;63.36;100902.66;4999300;28;98882;-69
2021/07/02 00:54:00;;;;;;;1999.90;999.90;;;;;;;11.62;63.06;100912.53;4993182;28;96814;-69
2021/07/02 00:56:31;;;;;;;1999.90;999.90;;;;;;;11.62;63.00;100915.19;5013208;27;97932;-69
2021/07/02 00:58:58;;;;;;;1999.90;999.90;;;;;;;11.67;62.75;100920.63;5019388;27;97892;-69
2021/07/02 01:01:31;;;;;;;1999.90;999.90;;;;;;;11.71;62.49;100920.69;4996593;28;100302;-68
2021/07/02 01:04:03;;;;;;;1999.90;999.90;;;;;;;11.69;62.68;100911.75;4998286;28;96680;-69
2021/07/02 01:06:32;;;;;;;1999.90;999.90;;;;;;;11.70;62.66;100907.34;4988030;27;97290;-69
2021/07/02 01:09:03;;;;;;;1999.90;999.90;;;;;;;11.68;62.77;100901.06;5007769;27;97660;-69
2021/07/02 01:11:33;;;;;;;1999.90;999.90;;;;;;;11.61;63.20;100900.06;5001116;27;99309;-69
2021/07/02 01:14:02;;;;;;;1999.90;999.90;;;;;;;11.58;63.04;100902.66;4990068;27;96780;-69
2021/07/02 01:16:30;;;;;;;1999.90;999.90;;;;;;;11.58;62.94;100904.44;4995641;27;97845;-68
2021/07/02 01:19:00;;;;;;;1999.90;999.90;;;;;;;11.56;62.82;100909.72;5008167;27;99433;-69
2021/07/02 01:21:29;;;;;;;1999.90;999.90;;;;;;;11.51;63.18;100899.84;5010298;27;97711;-68
2021/07/02 01:23:58;;;;;;;1999.90;999.90;;;;;;;11.49;63.12;100906.94;5001983;27;97533;-69
2021/07/02 01:26:26;;;;;;;1999.90;999.90;;;;;;;11.47;62.98;100909.56;5013670;27;96887;-68
2021/07/02 01:28:54;;;;;;;1999.90;999.90;;;;;;;11.45;63.12;100905.97;5015623;27;99811;-69
2021/07/02 01:31:22;;;;;;;1999.90;999.90;;;;;;;11.47;62.94;100914.88;5010053;27;99402;-68
2021/07/02 01:33:51;;;;;;;1999.90;999.90;;;;;;;11.48;62.92;100919.38;5015790;27;97497;-69
2021/07/02 01:36:20;;;;;;;1999.90;999.90;;;;;;;11.52;62.75;100907.91;5006170;27;97202;-68
2021/07/02 01:38:50;;;;;;;1999.90;999.90;;;;;;;11.54;62.59;100921.25;5018081;27;98788;-68
2021/07/02 01:41:19;;;;;;;1999.90;999.90;;;;;;;11.54;62.44;100927.50;4996848;27;102338;-69
2021/07/02 01:43:47;;;;;;;1999.90;999.90;;;;;;;11.54;62.52;100927.50;5002533;27;97718;-68
2021/07/02 01:46:15;;;;;;;1999.90;999.90;;;;;;;11.56;62.42;100924.84;5008309;27;97703;-68
2021/07/02 01:48:44;;;;;;;1999.90;999.90;;;;;;;11.53;62.41;100925.66;5011606;27;99027;-68
2021/07/02 01:51:14;;;;;;;1999.90;999.90;;;;;;;11.55;62.26;100929.28;5001715;27;97598;-68
2021/07/02 01:53:42;;;;;;;1999.90;999.90;;;;;;;11.54;62.46;100922.16;5009527;27;97834;-68
2021/07/02 01:56:13;;;;;;;1999.90;999.90;;;;;;;11.52;62.56;100920.31;4988293;27;97951;-67
2021/07/02 01:58:44;;;;;;;1999.90;999.90;;;;;;;11.50;62.34;100919.38;5020136;27;97607;-68
2021/07/02 02:01:21;;;;;;;1999.90;999.90;;;;;;;11.47;62.66;100916.66;5003183;27;98175;-67
2021/07/02 02:03:53;;;;;;;1999.90;999.90;;;;;;;11.49;62.52;100923.81;4988290;28;96931;-68
2021/07/02 02:06:22;;;;;;;1999.90;999.90;;;;;;;11.49;62.42;100931.81;5014844;27;97631;-68
2021/07/02 02:08:52;;;;;;;1999.90;999.90;;;;;;;11.51;62.42;100930.06;4990910;28;100374;-68
2021/07/02 02:11:23;;;;;;;1999.90;999.90;;;;;;;11.50;62.28;100930.94;5000800;28;98775;-68
2021/07/02 02:13:57;;;;;;;1999.90;999.90;;;;;;;11.48;62.60;100927.34;4998312;27;98970;-68
2021/07/02 02:16:26;;;;;;;1999.90;999.90;;;;;;;11.46;62.48;100929.09;5015374;27;97122;-68
2021/07/02 02:18:59;;;;;;;1999.90;999.90;;;;;;;11.48;62.24;100927.34;5005515;27;100111;-68
2021/07/02 02:21:27;;;;;;;1999.90;999.90;;;;;;;11.51;62.31;100937.16;5003196;27;99716;-68
2021/07/02 02:23:55;;;;;;;1999.90;999.90;;;;;;;11.52;62.40;100944.31;4987541;27;97686;-69
2021/07/02 02:26:24;;;;;;;1999.90;999.90;;;;;;;11.50;62.38;100944.28;4997460;27;97323;-68
2021/07/02 02:28:53;;;;;;;1999.90;999.90;;;;;;;11.52;62.29;100942.53;5007344;27;96908;-69
2021/07/02 02:31:21;;;;;;;1999.90;999.90;;;;;;;11.54;62.25;100943.47;4986458;27;97658;-69
2021/07/02 02:33:55;;;;;;;1999.90;999.90;;;;;;;11.55;62.10;100937.25;4998473;27;97681;-68
2021/07/02 02:36:23;;;;;;;1999.90;999.90;;;;;;;11.55;62.27;100942.59;4989835;27;98107;-69
2021/07/02 02:38:52;;;;;;;1999.90;999.90;;;;;;;11.54;62.36;100946.16;4987240;27;99710;-69
2021/07/02 02:41:20;;;;;;;1999.90;999.90;;;;;;;11.53;62.28;100947.00;4991238;27;99806;-68
2021/07/02 02:43:49;;;;;;;1999.90;999.90;;;;;;;11.57;62.08;100950.63;4986135;27;97050;-68
2021/07/02 02:46:17;;;;;;;1999.90;999.90;;;;;;;11.60;62.15;100948.00;5001173;27;97156;-68
2021/07/02 02:48:45;;;;;;;1999.90;999.90;;;;;;;11.59;62.04;100940.88;5017294;27;100842;-69
2021/07/02 02:51:14;;;;;;;1999.90;999.90;;;;;;;11.57;62.14;100943.53;4994606;27;98519;-69
2021/07/02 02:53:42;;;;;;;1999.90;999.90;;;;;;;11.59;62.08;100936.47;4994457;27;97474;-69
2021/07/02 02:56:10;;;;;;;1999.90;999.90;;;;;;;11.61;62.03;100945.38;4987175;27;98165;-69
2021/07/02 02:58:38;;;;;;;1999.90;999.90;;;;;;;11.57;62.43;100943.53;4994878;27;99319;-68
2021/07/02 03:01:07;;;;;;;1999.90;999.90;;;;;;;11.56;62.45;100948.84;4993852;27;101248;-69
2021/07/02 03:03:36;;;;;;;1999.90;999.90;;;;;;;11.57;62.37;100947.94;4997308;28;97450;-68
2021/07/02 03:06:10;;;;;;;1999.90;999.90;;;;;;;11.57;62.31;100948.84;5035608;27;97315;-68
2021/07/02 03:08:39;;;;;;;1999.90;999.90;;;;;;;11.55;62.58;100955.00;4998575;28;99749;-69
2021/07/02 03:11:07;;;;;;;1999.90;999.90;;;;;;;11.58;62.39;100955.97;5010595;27;97755;-68
2021/07/02 03:13:35;;;;;;;1999.90;999.90;;;;;;;11.55;62.54;100953.25;5002222;28;97662;-69
2021/07/02 03:16:04;;;;;;;1999.90;999.90;;;;;;;11.57;62.35;100947.94;5014207;27;98036;-70
2021/07/02 03:18:40;;;;;;;1999.90;999.90;;;;;;;11.56;62.63;100952.38;5017430;27;97798;-68
2021/07/02 03:21:09;;;;;;;1999.90;999.90;;;;;;;11.62;62.38;100956.91;4991807;28;99445;-69
2021/07/02 03:23:37;;;;;;;1999.90;999.90;;;;;;;11.62;62.41;100964.91;5020553;27;98372;-68
2021/07/02 03:26:05;;;;;;;1999.90;999.90;;;;;;;11.63;62.41;100967.66;5006544;28;97066;-68
2021/07/02 03:28:35;;;;;;;1999.90;999.90;;;;;;;11.64;62.33;100968.53;5002888;27;98592;-68
2021/07/02 03:31:04;;;;;;;1999.90;999.90;;;;;;;11.62;62.46;100965.81;5013475;27;98949;-67
2021/07/02 03:33:35;;;;;;;1999.90;999.90;;;;;;;11.65;62.31;100975.66;5023752;27;97830;-69
2021/07/02 03:36:05;;;;;;;1999.90;999.90;;;;;;;11.65;62.09;100979.19;5003032;27;96845;-68
2021/07/02 03:38:33;;;;;;;1999.90;999.90;;;;;;;11.65;61.99;100981.88;4999883;27;100834;-68
2021/07/02 03:41:02;;;;;;;1999.90;999.90;;;;;;;11.64;62.06;100984.50;5001605;27;99578;-69
2021/07/02 03:43:32;;;;;;;1999.90;999.90;;;;;;;11.64;62.10;100982.75;5014440;27;97891;-69
2021/07/02 03:46:00;;;;;;;1999.90;999.90;;;;;;;11.62;62.58;100979.16;5018396;27;96918;-69
2021/07/02 03:48:29;;;;;;;1999.90;999.90;;;;;;;11.62;62.22;100979.16;5003243;27;99654;-70
2021/07/02 03:50:58;;;;;;;1999.90;999.90;;;;;;;11.65;62.20;100989.88;5020842;27;98991;-69
2021/07/02 03:53:29;;;;;;;1999.90;999.90;;;;;;;11.66;62.29;100981.03;5003406;27;97162;-69
2021/07/02 03:55:57;;;;;;;1999.90;999.90;;;;;;;11.67;62.25;100982.81;5008071;27;97407;-70
2021/07/02 03:58:24;;;;;;;1999.90;999.90;;;;;;;11.66;62.28;100981.03;5007825;27;99127;-72
2021/07/02 04:00:52;;;;;;;1999.90;999.90;;;;;;;11.65;62.21;100981.00;5005718;27;97824;-72
2021/07/02 04:03:20;;;;;;;1999.90;999.90;;;;;;;11.67;62.15;100987.25;5009408;27;97561;-72
2021/07/02 04:05:48;;;;;;;1999.90;999.90;;;;;;;11.71;62.07;100979.34;5010017;27;97255;-73
2021/07/02 04:08:16;;;;;;;1999.90;999.90;;;;;;;11.74;61.89;100984.72;5034894;27;99590;-72
2021/07/02 04:10:45;;;;;;;1999.90;999.90;;;;;;;11.83;61.62;100989.34;5009710;27;99708;-72
2021/07/02 04:13:12;;;;;;;1999.90;999.90;;;;;;;11.74;61.84;100990.06;4997855;27;97677;-71
2021/07/02 04:15:40;;;;;;;1999.90;999.90;;;;;;;11.72;62.04;100986.47;5005666;27;97887;-72
2021/07/02 04:18:08;;;;;;;1999.90;999.90;;;;;;;11.70;62.04;101003.31;5006035;27;97603;-71
2021/07/02 04:20:38;;;;;;;1999.90;999.90;;;;;;;11.72;62.01;101001.56;5007993;27;98274;-72
2021/07/02 04:23:06;;;;;;;1999.90;999.90;;;;;;;11.72;62.23;101006.91;5006405;27;98066;-71
2021/07/02 04:25:34;;;;;;;1999.90;999.90;;;;;;;11.76;62.05;101008.78;5004671;27;98664;-72
2021/07/02 04:28:03;;;;;;;1999.90;999.90;;;;;;;11.77;62.05;101000.78;4991703;27;99305;-72
2021/07/02 04:30:31;;;;;;;1999.90;999.90;;;;;;;11.81;61.98;101018.66;5004598;27;97187;-72
2021/07/02 04:32:59;;;;;;;1999.90;999.90;;;;;;;11.82;62.01;101008.88;5006562;27;97888;-72
2021/07/02 04:35:27;;;;;;;1999.90;999.90;;;;;;;11.82;61.81;101015.09;5006350;27;97255;-72
2021/07/02 04:37:54;;;;;;;1999.90;999.90;;;;;;;11.85;61.71;101023.16;4992458;27;97687;-72
2021/07/02 04:40:22;;;;;;;1999.90;999.90;;;;;;;11.85;61.80;101008.94;5004123;27;97917;-72
2021/07/02 04:42:50;;;;;;;1999.90;999.90;;;;;;;11.90;61.49;101010.84;5006020;27;97925;-73
2021/07/02 04:45:20;;;;;;;1999.90;999.90;;;;;;;11.90;61.68;101013.50;5008471;27;97947;-72
2021/07/02 04:47:47;;;;;;;1999.90;999.90;;;;;;;11.94;61.51;101012.66;5007902;27;97868;-72
2021/07/02 04:50:15;;;;;;;1999.90;999.90;;;;;;;12.01;61.41;101011.03;5008362;27;99257;-72
2021/07/02 04:52:43;;;;;;;1999.90;999.90;;;;;;;12.03;61.31;101018.22;5009015;27;97548;-73
2021/07/02 04:55:11;;;;;;;1999.90;999.90;;;;;;;12.06;61.26;101012.00;4993432;27;97905;-72
2021/07/02 04:57:39;;;;;;;1999.90;999.90;;;;;;;12.07;61.24;101012.03;4991876;27;99258;-72
2021/07/02 05:00:10;;;;;;;1999.90;999.90;;;;;;;12.13;60.97;101006.81;5013370;27;98869;-72
2021/07/02 05:02:39;;;;;;;1999.90;999.90;;;;;;;12.21;61.11;101022.09;5011680;27;98015;-71
2021/07/02 05:05:07;;;;;;;1999.90;999.90;;;;;;;12.23;60.91;101013.25;5015787;27;96956;-71
2021/07/02 05:07:35;;;;;;;1999.90;999.90;;;;;;;12.25;60.95;101021.28;5007738;27;98971;-72
2021/07/02 05:10:05;;;;;;;1999.90;999.90;;;;;;;12.28;61.09;101026.66;5007822;27;98899;-73
2021/07/02 05:12:33;;;;;;;1999.90;999.90;;;;;;;12.29;61.04;101021.34;5003781;27;96877;-72
2021/07/02 05:15:01;;;;;;;1999.90;999.90;;;;;;;12.37;60.82;101016.16;5004476;27;97552;-71
2021/07/02 05:17:29;;;;;;;1999.90;999.90;;;;;;;12.41;60.48;101023.34;5005991;27;99345;-71
2021/07/02 05:19:58;;;;;;;1999.90;999.90;;;;;;;12.41;60.97;101020.69;5005233;27;100069;-71
2021/07/02 05:22:29;;;;;;;1999.90;999.90;;;;;;;12.45;60.77;101023.44;5017235;27;97114;-71
2021/07/02 05:24:57;;;;;;;1999.90;999.90;;;;;;;12.50;60.67;101019.06;5011582;27;98253;-73
2021/07/02 05:27:24;;;;;;;1999.90;999.90;;;;;;;12.56;60.57;101019.19;5004460;27;97794;-72
2021/07/02 05:29:52;;;;;;;1999.90;999.90;;;;;;;12.64;60.34;101021.97;5003287;27;100305;-71
2021/07/02 05:32:20;;;;;;;1999.90;999.90;;;;;;;12.69;60.22;101028.31;4987523;28;96988;-72
2021/07/02 05:35:09;;;;;;;1999.90;999.90;;;;;;;12.73;60.37;101030.16;5004858;27;97896;-71
2021/07/02 05:37:43;;;;;;;1999.90;999.90;;;;;;;12.76;59.80;101020.41;5007080;27;97786;-71
2021/07/02 05:40:12;;;;;;;1999.90;999.90;;;;;;;12.79;59.99;101024.88;4990027;27;99380;-71
2021/07/02 05:42:40;;;;;;;1999.90;999.90;;;;;;;12.84;59.96;101033.88;5008547;27;96885;-71
2021/07/02 05:45:09;;;;;;;1999.90;999.90;;;;;;;12.88;59.79;101035.72;5009570;27;97956;-72
2021/07/02 05:47:38;;;;;;;1999.90;999.90;;;;;;;;;;5003000;27;99667;-71
2021/07/02 05:50:08;;;;;;;1999.90;999.90;;;;;;;12.97;59.62;101043.88;5004653;27;97767;-72
2021/07/02 05:52:36;;;;;;;1999.90;999.90;;;;;;;13.03;59.55;101033.31;4998791;27;96915;-73
2021/07/02 05:55:05;;;;;;;1999.90;999.90;;;;;;;12.95;59.85;101026.91;5006911;27;97160;-71
2021/07/02 05:57:33;;;;;;;1999.90;999.90;;;;;;;12.96;60.00;101036.75;5011441;27;98802;-72
2021/07/02 06:00:01;;;;;;;1999.90;999.90;;;;;;;12.97;59.92;101022.50;5012129;27;97844;-72
2021/07/02 06:02:29;;;;;;;1999.90;999.90;;;;;;;13.02;59.77;101031.53;5011516;27;96837;-71
2021/07/02 06:04:56;;;;;;;1999.90;999.90;;;;;;;12.98;59.98;101029.66;5011302;27;97232;-72
2021/07/02 06:07:25;;;;;;;1999.90;999.90;;;;;;;;;;5016345;27;97980;-72
2021/07/02 06:09:53;;;;;;;1999.90;999.90;;;;;;;12.98;60.08;101035.00;5011015;27;100242;-73
2021/07/02 06:12:21;;;;;;;1999.90;999.90;;;;;;;13.08;59.74;101036.94;5004757;27;97731;-72
2021/07/02 06:14:49;;;;;;;1999.90;999.90;;;;;;;13.11;59.55;101042.38;5008988;27;97172;-72
2021/07/02 06:17:16;;;;;;;1999.90;999.90;;;;;;;13.13;59.66;101035.25;5005505;27;99097;-72
2021/07/02 06:19:44;;;;;;;1999.90;999.90;;;;;;;13.17;59.51;101033.53;5004708;27;100404;-71
2021/07/02 06:22:12;;;;;;;1999.90;999.90;;;;;;;13.21;59.45;101036.25;5004120;27;97200;-72
2021/07/02 06:24:41;;;;;;;1999.90;999.90;;;;;;;13.21;59.38;101038.94;5007133;27;98139;-72
2021/07/02 06:27:09;;;;;;;1999.90;999.90;;;;;;;13.25;59.41;101031.84;5013297;27;97704;-71
2021/07/02 06:29:37;;;;;;;1999.90;999.90;;;;;;;13.20;59.56;101039.81;5034316;27;99460;-71
2021/07/02 06:32:05;;;;;;;1999.90;999.90;;;;;;;13.18;59.73;101038.91;4996480;27;97175;-72
2021/07/02 06:34:33;;;;;;;1999.90;999.90;;;;;;;13.22;59.54;101047.84;4990105;27;97603;-71
2021/07/02 06:37:01;;;;;;;1999.90;999.90;;;;;;;13.46;58.91;101040.19;5002243;27;100962;-72
2021/07/02 06:39:28;;;;;;;1999.90;999.90;;;;;;;13.59;58.53;101039.44;4989670;27;99599;-72
2021/07/02 06:41:58;;;;;;;1999.90;999.90;;;;;;;13.44;58.90;101042.81;4987893;27;97365;-72
2021/07/02 06:44:26;;;;;;;1999.90;999.90;;;;;;;13.41;59.31;101039.19;5005637;27;96821;-72
2021/07/02 06:46:53;;;;;;;1999.90;999.90;;;;;;;13.65;58.27;101043.13;5001044;27;99407;-72
2021/07/02 06:49:21;;;;;;;1999.90;999.90;;;;;;;13.48;58.81;101041.97;5005640;27;99111;-72
2021/07/02 06:51:49;;;;;;;1999.90;999.90;;;;;;;13.48;58.85;101050.00;5004253;27;97936;-72
2021/07/02 06:54:17;;;;;;;1999.90;999.90;;;;;;;13.49;58.84;101046.47;5014798;27;97053;-72
2021/07/02 06:59:29;;;;;;;1999.90;999.90;;;;;;;13.47;58.71;101053.56;5010303;27;99930;-72
2021/07/02 07:01:57;;;;;;;1999.90;999.90;;;;;;;13.44;58.71;101050.84;5004496;27;96982;-73
2021/07/02 07:04:25;;;;;;;1999.90;999.90;;;;;;;13.43;58.94;101056.16;5010040;27;97345;-71
2021/07/02 07:06:53;;;;;;;1999.90;999.90;;;;;;;13.45;58.87;101059.75;5006435;27;97860;-72
2021/07/02 07:09:21;;;;;;;1999.90;999.90;;;;;;;13.44;58.91;101050.84;5003050;27;98096;-73
2021/07/02 07:11:49;;;;;;;1999.90;999.90;;;;;;;13.43;58.86;101053.50;5005323;27;97228;-71
2021/07/02 07:14:16;;;;;;;1999.90;999.90;;;;;;;13.40;58.99;101053.47;5005764;27;96973;-72
2021/07/02 07:16:45;;;;;;;1999.90;999.90;;;;;;;13.37;59.17;101062.31;5004535;27;97709;-71
2021/07/02 07:19:13;;;;;;;1999.90;999.90;;;;;;;13.35;58.97;101052.50;4995331;28;101282;-71
2021/07/02 07:21:41;;;;;;;1999.90;999.90;;;;;;;13.33;58.99;101065.81;5001091;28;97147;-72
2021/07/02 07:24:09;;;;;;;1999.90;999.90;;;;;;;13.30;59.15;101065.78;5017405;27;97275;-72
2021/07/02 07:26:37;;;;;;;1999.90;999.90;;;;;;;13.28;59.21;101067.53;5006903;27;99153;-72
2021/07/02 07:29:05;;;;;;;1999.90;999.90;;;;;;;13.31;59.12;101056.91;5009096;27;98285;-71
2021/07/02 07:31:33;;;;;;;1999.90;999.90;;;;;;;13.32;59.04;101068.47;5001138;28;97574;-72
2021/07/02 07:34:03;;;;;;;1999.90;999.90;;;;;;;13.36;58.98;101071.22;5003551;27;98332;-72
2021/07/02 07:36:32;;;;;;;1999.90;999.90;;;;;;;13.32;59.34;101068.47;5002862;27;97619;-71
2021/07/02 07:38:59;;;;;;;1999.90;999.90;;;;;;;13.34;58.98;101072.97;5001902;27;99965;-71
2021/07/02 07:41:27;;;;;;;1999.90;999.90;;;;;;;13.34;59.04;101070.31;5008232;27;97915;-72
2021/07/02 07:43:58;;;;;;;1999.90;999.90;;;;;;;13.34;59.06;101072.97;5003024;27;97588;-72
2021/07/02 07:46:28;;;;;;;1999.90;999.90;;;;;;;13.35;59.00;101068.53;5011508;27;98424;-72
2021/07/02 07:48:56;;;;;;;1999.90;999.90;;;;;;;13.40;58.91;101057.03;5013501;27;96944;-72
2021/07/02 07:51:34;;;;;;;1999.90;999.90;;;;;;;13.42;58.95;101063.31;4999337;28;97754;-71
2021/07/02 07:54:02;;;;;;;1999.90;999.90;;;;;;;13.45;58.92;101065.09;5034577;27;96938;-72
2021/07/02 07:56:31;;;;;;;1999.90;999.90;;;;;;;13.47;58.77;101061.59;5007641;27;100454;-72
2021/07/02 07:58:59;;;;;;;1999.90;999.90;;;;;;;13.46;58.87;101066.94;5006826;27;98059;-71
2021/07/02 08:01:27;;;;;;;1999.90;999.90;;;;;;;13.80;58.08;101075.44;5002370;27;97398;-71
2021/07/02 08:03:55;;;;;;;1999.90;999.90;;;;;;;13.75;58.19;101081.59;5006275;27;97752;-72
2021/07/02 08:06:22;;;;;;;1999.90;999.90;;;;;;;13.78;58.36;101071.81;5010815;27;98970;-71
2021/07/02 08:08:53;;;;;;;1999.90;999.90;;;;;;;13.78;58.32;101071.81;4991396;27;99211;-71
2021/07/02 08:11:21;;;;;;;1999.90;999.90;;;;;;;13.83;58.23;101074.56;5038093;27;97150;-71
2021/07/02 08:13:48;;;;;;;1999.90;999.90;;;;;;;13.88;57.83;101071.06;5012128;27;97254;-71
2021/07/02 08:16:16;;;;;;;1999.90;999.90;;;;;;;13.94;57.82;101068.47;5006255;27;100676;-71
2021/07/02 08:18:44;;;;;;;1999.90;999.90;;;;;;;13.96;57.88;101069.41;5000168;27;99333;-72
2021/07/02 08:21:12;;;;;;;1999.90;999.90;;;;;;;13.96;57.60;101082.78;5011236;27;97274;-73
2021/07/02 08:23:41;;;;;;;1999.90;999.90;;;;;;;14.00;57.63;101073.91;5011828;27;97566;-72
2021/07/02 08:26:12;;;;;;;1999.90;999.90;;;;;;;13.99;57.47;101088.16;4992561;27;101590;-71
2021/07/02 08:31:26;;;;;;;1999.90;999.90;;;;;;;13.97;57.79;101097.03;5011547;27;97179;-70
2021/07/02 08:33:54;;;;;;;1999.90;999.90;;;;;;;14.01;57.67;101094.41;5007720;27;97305;-72
2021/07/02 08:36:22;;;;;;;1999.90;999.90;;;;;;;14.06;57.29;101084.66;5019505;27;99567;-71
2021/07/02 08:38:49;;;;;;;1999.90;999.90;;;;;;;14.04;57.12;101101.59;5021370;27;100561;-72
2021/07/02 08:41:18;;;;;;;1999.90;999.90;;;;;;;14.05;57.20;101092.69;5010248;27;97428;-72
2021/07/02 08:43:47;;;;;;;1999.90;999.90;;;;;;;14.06;57.29;101089.13;5011930;27;97723;-72
2021/07/02 08:46:17;;;;;;;1999.90;999.90;;;;;;;14.12;57.28;101084.75;5018445;27;99707;-71
2021/07/02 08:48:46;;;;;;;1999.90;999.90;;;;;;;14.13;56.95;101097.22;5015635;27;99463;-72
2021/07/02 08:51:14;;;;;;;1999.90;999.90;;;;;;;14.10;57.00;101091.84;4993344;28;97559;-72
2021/07/02 08:53:42;;;;;;;1999.90;999.90;;;;;;;14.07;57.21;101102.53;5014842;27;97669;-71
2021/07/02 08:56:10;;;;;;;1999.90;999.90;;;;;;;14.10;57.18;101097.22;5009842;27;99400;-72
2021/07/02 08:58:39;;;;;;;1999.90;999.90;;;;;;;14.19;57.06;101095.53;5008902;27;98602;-71
2021/07/02 09:01:08;;;;;;;1999.90;999.90;;;;;;;14.25;56.78;101101.84;5012126;27;96952;-71
2021/07/02 09:03:38;;;;;;;1999.90;999.90;;;;;;;14.28;56.60;101103.66;5013378;27;97075;-71
2021/07/02 09:06:15;;;;;;;1999.90;999.90;;;;;;;14.34;56.45;101106.38;5012436;27;100839;-71
2021/07/02 09:08:58;;;;;;;1999.90;999.90;;;;;;;14.40;56.13;101109.13;5005459;27;99345;-72
2021/07/02 09:11:27;;;;;;;1999.90;999.90;;;;;;;14.49;56.11;101103.88;5012356;27;98530;-72
2021/07/02 09:13:56;;;;;;;1999.90;999.90;;;;;;;14.50;56.10;101117.28;5018061;27;97061;-72
2021/07/02 09:16:25;;;;;;;1999.90;999.90;;;;;;;14.52;56.07;101109.25;5006745;27;100655;-71
2021/07/02 09:18:54;;;;;;;571.22;544.20;;;;;;;14.46;56.04;101118.16;5008103;27;97897;-72
2021/07/02 09:21:26;;;;;;;583.40;556.00;;;;;;;14.40;56.03;101115.41;5019511;27;97844;-73
2021/07/02 09:23:57;;;;;;;1999.90;999.90;;;;;;;14.39;56.42;101115.38;4999974;28;97259;-71
2021/07/02 09:26:33;;;;;;;583.00;554.78;;;;;;;14.34;55.40;101119.78;5005422;27;97843;-72
2021/07/02 09:29:16;;;;;;;583.53;556.22;;;;;;;14.32;54.99;101108.13;5004616;28;100528;-72
2021/07/02 09:31:44;;;;;;;570.10;542.92;;;;;;;14.34;56.55;101111.75;5000614;27;97484;-71
2021/07/02 09:34:12;;;;;;;579.15;551.33;;;;;;;14.37;56.21;101123.38;5005746;27;97788;-72
2021/07/02 09:36:42;;;;;;;571.40;544.33;;;;;;;14.35;56.38;101122.50;5012033;27;99360;-72
2021/07/02 09:39:28;;;;;;;577.83;549.97;;;;;;;14.35;56.05;101129.63;5005046;27;97925;-71
2021/07/02 09:41:56;;;;;;;567.20;540.33;;;;;;;14.40;56.34;101127.88;5005667;27;98201;-72
2021/07/02 09:44:25;;;;;;;576.63;549.30;;;;;;;14.45;56.04;101126.13;5005438;27;96238;-77
2021/07/02 09:46:53;;;;;;;560.17;534.40;;;;;;;14.50;55.64;101130.66;5004676;27;99269;-72
2021/07/02 09:49:25;;;;;;;562.90;536.65;;;;;;;14.51;55.75;101131.56;5007824;27;99758;-71
2021/07/02 09:51:53;;;;;;;557.22;530.20;;;;;;;14.55;55.79;101133.41;5008529;27;97320;-71
2021/07/02 09:54:21;;;;;;;556.60;530.22;;;;;;;14.65;55.32;101140.69;5010354;27;97400;-72
2021/07/02 09:56:49;;;;;;;532.63;508.35;;;;;;;14.63;55.64;101142.44;5005616;27;97694;-72
2021/07/02 09:59:17;;;;;;;501.42;478.77;;;;;;;14.65;55.53;101146.94;5006940;27;100556;-72
2021/07/02 10:01:48;;;;;;;507.38;484.45;;;;;;;14.66;55.23;101143.38;4989023;28;97059;-72
2021/07/02 10:04:16;;;;;;;509.42;486.30;;;;;;;14.65;54.88;101140.69;4992570;28;97111;-71
2021/07/02 10:06:43;;;;;;;512.88;489.48;;;;;;;14.65;54.96;101146.94;5008139;27;98016;-72
2021/07/02 10:09:11;;;;;;;503.38;480.60;;;;;;;14.63;55.12;101145.13;4998438;28;100520;-72
2021/07/02 10:11:41;;;;;;;508.30;485.40;;;;;;;14.70;55.00;101138.97;5004765;27;98034;-72
2021/07/02 10:14:10;;;;;;;544.90;519.03;;;;;;;14.77;54.47;101135.47;5001926;28;98416;-72
2021/07/02 10:16:38;;;;;;;505.58;482.13;;;;;;;14.78;54.24;101142.59;4997029;28;99594;-71
2021/07/02 10:19:08;;;;;;;504.15;481.05;;;;;;;14.84;54.29;101145.34;5007048;27;100327;-71
2021/07/02 10:21:36;;;;;;;508.98;485.65;;;;;;;14.88;54.04;101150.72;5013013;27;97930;-72
2021/07/02 10:24:07;;;;;;;497.85;475.45;;;;;;;14.96;54.23;101153.47;5006767;27;98319;-73
2021/07/02 10:26:36;;;;;;;509.27;486.73;;;;;;;15.02;54.13;101148.19;4995566;28;100415;-72
2021/07/02 10:29:06;;;;;;;499.15;476.95;;;;;;;15.06;53.61;101150.03;5004018;27;99176;-71
2021/07/02 10:31:33;;;;;;;510.45;487.45;;;;;;;15.09;53.32;101148.25;5008896;27;97410;-72
2021/07/02 10:34:02;;;;;;;505.45;482.80;;;;;;;15.13;53.48;101142.03;5004771;27;97962;-72
2021/07/02 10:36:35;;;;;;;503.40;480.98;;;;;;;15.16;51.90;101146.50;5009318;27;98937;-72
2021/07/02 10:39:03;;;;;;;497.17;474.83;;;;;;;15.26;53.26;101158.22;4990017;27;99621;-72
2021/07/02 10:41:32;;;;;;;1999.90;999.90;;;;;;;15.48;51.38;101155.75;5007082;27;97187;-73
2021/07/02 10:44:08;;;;;;;626.85;594.50;;;;;;;15.36;51.78;101155.66;5011840;27;97989;-71
2021/07/02 10:46:37;;;;;;;514.30;491.02;;;;;;;15.35;52.08;101169.03;5005079;27;101614;-72
2021/07/02 10:49:06;;;;;;;501.73;478.98;;;;;;;15.19;52.25;101162.66;5003939;27;97528;-72
2021/07/02 10:51:52;;;;;;;495.30;472.80;;;;;;;14.99;51.75;101172.28;5011096;27;97614;-72
2021/07/02 10:54:28;;;;;;;486.15;464.10;;;;;;;14.92;52.32;101157.00;5014301;27;98042;-71
2021/07/02 10:57:19;;;;;;;500.48;477.45;;;;;;;14.85;52.56;101160.53;5004977;27;99624;-72
2021/07/02 11:00:17;;;;;;;496.95;474.50;;;;;;;14.78;52.95;101158.66;5012130;27;97545;-71
2021/07/02 11:02:46;;;;;;;510.42;487.17;;;;;;;14.72;53.59;101167.53;4931208;28;97717;-72